イースター島 の空港の天気 - METARとTAF

マタベリ国際空港 ( SCIP / IPC ) - チリ イースター島
飛行場実況気象(Metar)
観測時間02/17 09:00 EAST (02/17 14:00 UTC)
風向・風速静穏 0m/s
視程8000m
天気現象弱いしゅう雨
全天の8割程度の雲 雲底高度 610m
全天の8割程度の雲 雲底高度 1220m
気温20℃
湿度100%
気圧1015hPa
METARSCIP 171400Z 00000KT 8000 -SHRA BKN020 BKN040 20/20 Q1015 NOSIG
過去の天気等 Google飛行場航空写真 Wunderground天気予報

過去48時間のMETAR

飛行場予報(TAF)
発表時間: 2/17 05:18 EAST (2/17 10:18 UTC)
予報対象時間: 17日7時 EAST ~ 18日7時 EAST
風向・風速南西 4m/s
視程7000m
天気現象弱いしゅう雨
全天の4割程度の雲 雲底高度 610m
全天の8割程度の雲 雲底高度 1220m
17日7時 EAST ~ 17日13時 EAST に一時的に
風向・風速東南東 2m/s
視程2000m
天気現象強い雨 強いしゅう雨
全天の4割程度の雲 雲底高度 240m
全天の8割程度の雲 雲底高度 370m
全天を覆う雲 雲底高度 1070m
17日14時 EAST ~ 17日16時 EAST に徐々に
風向・風速東南東 5m/s
視程10km以上
天気現象運行に影響にある天気現象が終了
全天の4割程度の雲 雲底高度 610m
18日3時 EAST ~ 18日6時 EAST に一時的に
風向・風速東南東 2m/s
視程7000m
天気現象弱いしゅう雨
全天の4割程度の雲 雲底高度 460m
全天の8割程度の雲 雲底高度 1220m
TAF SCIP 171018Z 1712/1812 22008KT 7000 -SHRA SCT020 BKN040 TN20/1810Z TX26/1718Z
TEMPO 1712/1718 11004KT 2000 +RA +SHRA SCT008 BKN012 OVC035
BECMG 1719/1721 11010KT 9999 NSW SCT020
TEMPO 1808/1811 11004KT 7000 -SHRA SCT015 BKN040